createdAt,value
2023-02-28T00:08:47.528Z,10.00
2023-02-28T00:23:52.018Z,9.70
2023-02-28T00:38:56.450Z,9.80
2023-02-28T00:54:00.998Z,9.90
2023-02-28T01:09:05.908Z,9.80
2023-02-28T01:24:10.540Z,9.60
2023-02-28T01:39:15.257Z,9.60
2023-02-28T01:54:24.487Z,9.70
2023-02-28T02:09:28.931Z,9.30
2023-02-28T02:25:01.425Z,9.40
2023-02-28T02:40:13.324Z,9.40
2023-02-28T02:55:20.503Z,9.30
2023-02-28T03:10:35.627Z,9.40
2023-02-28T03:25:46.966Z,9.10
2023-02-28T03:40:56.190Z,9.10
2023-02-28T03:56:05.683Z,9.00
2023-02-28T04:11:20.381Z,9.20
2023-02-28T04:26:24.810Z,9.00
2023-02-28T04:41:32.347Z,8.90
2023-02-28T04:56:37.098Z,8.80
2023-02-28T05:11:41.932Z,8.70
2023-02-28T05:26:46.323Z,8.50
2023-02-28T05:41:50.735Z,8.00
2023-02-28T05:56:55.141Z,8.40
2023-02-28T06:12:01.436Z,8.40
2023-02-28T06:27:06.278Z,8.20
2023-02-28T06:42:11.421Z,8.30
2023-02-28T06:57:15.857Z,8.40
2023-02-28T07:12:20.412Z,8.30
2023-02-28T07:27:26.533Z,8.30
2023-02-28T07:42:31.100Z,8.20
2023-02-28T07:57:35.851Z,8.20
2023-02-28T08:12:40.417Z,8.40
2023-02-28T08:27:44.787Z,8.00
2023-02-28T08:42:49.525Z,8.70
2023-02-28T08:57:55.824Z,8.90
2023-02-28T09:13:00.207Z,9.00
2023-02-28T09:28:05.094Z,9.00
2023-02-28T09:43:16.803Z,9.10
2023-02-28T09:58:28.231Z,9.60
2023-02-28T10:13:40.296Z,8.90
2023-02-28T10:28:45.090Z,9.90
2023-02-28T10:43:50.467Z,10.60
2023-02-28T10:58:57.409Z,10.30
2023-02-28T11:14:17.074Z,11.30
2023-02-28T11:29:24.070Z,11.50
2023-02-28T11:44:44.315Z,11.00
2023-02-28T12:00:02.562Z,11.40
2023-02-28T12:15:36.033Z,12.00
2023-02-28T12:30:48.529Z,12.30
2023-02-28T12:45:58.188Z,11.90
2023-02-28T13:01:29.735Z,12.00
2023-02-28T13:16:59.383Z,12.30
2023-02-28T13:32:22.710Z,11.00
2023-02-28T13:47:31.363Z,12.10
2023-02-28T14:03:10.361Z,11.80
2023-02-28T14:18:25.862Z,11.20
2023-02-28T14:33:44.768Z,12.30
2023-02-28T14:48:50.457Z,12.00
2023-02-28T15:04:03.661Z,14.90
2023-02-28T15:19:15.768Z,14.30
2023-02-28T15:34:26.528Z,15.10
2023-02-28T15:49:45.252Z,13.90
2023-02-28T16:05:28.645Z,12.90
2023-02-28T16:20:33.682Z,12.30
2023-02-28T16:35:38.168Z,12.30
2023-02-28T16:50:43.271Z,11.50
2023-02-28T17:05:48.228Z,11.60
2023-02-28T17:20:53.152Z,11.80
2023-02-28T17:35:57.825Z,11.40
2023-02-28T17:51:02.315Z,11.30
2023-02-28T18:06:07.529Z,11.60
2023-02-28T18:21:14.827Z,11.40
2023-02-28T18:36:20.707Z,11.30
2023-02-28T18:51:27.877Z,11.50
2023-02-28T19:06:33.791Z,11.20
2023-02-28T19:21:38.243Z,11.10
2023-02-28T19:36:43.097Z,11.20
2023-02-28T19:51:48.025Z,11.40
2023-02-28T20:06:52.796Z,11.10
2023-02-28T20:21:57.322Z,11.20
2023-02-28T20:37:01.763Z,11.10
2023-02-28T20:52:06.325Z,11.00
2023-02-28T21:07:10.943Z,10.70
2023-02-28T21:22:15.922Z,10.80
2023-02-28T21:37:20.502Z,10.80
2023-02-28T21:52:25.065Z,10.70
2023-02-28T22:07:29.449Z,10.60
2023-02-28T22:22:33.901Z,10.50
2023-02-28T22:37:38.370Z,10.10
2023-02-28T22:52:42.887Z,10.10
2023-02-28T23:07:47.323Z,10.00
2023-02-28T23:22:52.151Z,9.90
2023-02-28T23:37:58.154Z,9.90
2023-02-28T23:53:02.598Z,9.80
